createdAt,value
2023-05-05T00:02:07.228Z,22.10
2023-05-05T00:09:27.037Z,20.95
2023-05-05T00:16:45.531Z,22.20
2023-05-05T00:24:04.374Z,19.33
2023-05-05T00:31:24.287Z,21.30
2023-05-05T00:38:42.720Z,18.45
2023-05-05T00:46:03.317Z,17.58
2023-05-05T00:53:23.558Z,19.35
2023-05-05T01:00:42.146Z,18.75
2023-05-05T01:08:15.156Z,22.85
2023-05-05T01:15:37.745Z,27.02
2023-05-05T01:23:01.290Z,18.95
2023-05-05T01:37:47.728Z,22.27
2023-05-05T01:45:09.129Z,22.88
2023-05-05T01:52:28.117Z,22.20
2023-05-05T01:59:48.148Z,24.23
2023-05-05T02:07:06.636Z,17.42
2023-05-05T02:14:28.284Z,23.73
2023-05-05T02:21:48.190Z,20.25
2023-05-05T02:29:08.786Z,24.35
2023-05-05T02:36:30.105Z,20.60
2023-05-05T02:43:56.204Z,16.55
2023-05-05T02:51:14.933Z,22.90
2023-05-05T02:58:39.525Z,20.50
2023-05-05T03:06:05.685Z,26.02
2023-05-05T03:13:26.524Z,21.02
2023-05-05T03:20:45.206Z,21.60
2023-05-05T03:28:08.010Z,19.05
2023-05-05T03:35:27.267Z,20.60
2023-05-05T03:42:46.032Z,22.13
2023-05-05T03:50:07.830Z,24.80
2023-05-05T03:57:27.204Z,18.38
2023-05-05T04:04:45.713Z,18.77
2023-05-05T04:12:07.748Z,20.40
2023-05-05T04:19:26.158Z,21.17
2023-05-05T04:26:45.277Z,18.67
2023-05-05T04:34:05.683Z,20.95
2023-05-05T04:41:24.614Z,16.48
2023-05-05T04:48:43.334Z,21.63
2023-05-05T04:56:03.673Z,17.95
2023-05-05T05:03:22.138Z,17.98
2023-05-05T05:10:41.094Z,21.08
2023-05-05T05:18:01.560Z,23.40
2023-05-05T05:25:20.469Z,19.58
2023-05-05T05:32:40.236Z,14.00
2023-05-05T05:40:00.886Z,19.95
2023-05-05T05:47:22.555Z,17.03
2023-05-05T05:54:42.136Z,15.95
2023-05-05T06:02:03.784Z,16.15
2023-05-05T06:09:25.224Z,20.00
2023-05-05T06:16:45.827Z,24.23
2023-05-05T06:24:09.950Z,19.58
2023-05-05T06:31:28.498Z,18.33
2023-05-05T06:38:47.457Z,19.88
2023-05-05T06:46:07.752Z,13.38
2023-05-05T06:53:26.320Z,16.30
2023-05-05T07:00:44.601Z,14.70
2023-05-05T07:08:04.373Z,13.57
2023-05-05T07:15:28.065Z,12.38
2023-05-05T07:22:47.611Z,13.30
2023-05-05T07:30:13.214Z,11.07
2023-05-05T07:37:32.897Z,11.65
2023-05-05T07:44:51.040Z,13.20
2023-05-05T07:52:10.755Z,11.00
2023-05-05T07:59:29.924Z,11.77
2023-05-05T08:06:48.360Z,7.10
2023-05-05T08:14:08.807Z,9.68
2023-05-05T08:21:27.802Z,8.23
2023-05-05T08:28:46.841Z,8.95
2023-05-05T08:36:07.148Z,9.38
2023-05-05T08:43:25.280Z,6.78
2023-05-05T08:50:45.261Z,10.95
2023-05-05T08:58:05.191Z,9.65
2023-05-05T09:05:23.631Z,6.45
2023-05-05T09:12:42.389Z,11.75
2023-05-05T09:20:07.373Z,5.35
2023-05-05T09:27:25.943Z,6.25
2023-05-05T09:34:44.557Z,5.35
2023-05-05T09:42:05.032Z,7.55
2023-05-05T09:49:25.700Z,7.25
2023-05-05T09:56:44.289Z,6.35
2023-05-05T10:04:03.781Z,4.18
2023-05-05T10:11:22.357Z,5.05
2023-05-05T10:18:44.069Z,8.10
2023-05-05T10:26:07.679Z,6.82
2023-05-05T10:33:32.740Z,4.43
2023-05-05T10:40:51.759Z,6.95
2023-05-05T10:48:15.787Z,4.80
2023-05-05T10:55:38.015Z,3.58
2023-05-05T11:17:49.894Z,4.30
2023-05-05T11:25:41.649Z,9.77
2023-05-05T11:33:37.039Z,4.57
2023-05-05T11:41:00.369Z,13.55
2023-05-05T11:48:28.819Z,3.40
2023-05-05T11:55:47.138Z,3.33
2023-05-05T12:03:07.092Z,5.00
2023-05-05T12:10:25.829Z,5.18
2023-05-05T12:17:46.322Z,6.00
2023-05-05T12:25:07.873Z,2.80
2023-05-05T12:32:28.186Z,5.38
2023-05-05T12:39:46.897Z,2.92
2023-05-05T12:47:07.514Z,6.68
2023-05-05T12:54:29.654Z,4.72
2023-05-05T13:01:53.106Z,4.50
2023-05-05T13:09:25.835Z,3.40
2023-05-05T13:16:44.086Z,6.73
2023-05-05T13:24:20.773Z,2.92
2023-05-05T13:31:47.029Z,3.63
2023-05-05T13:39:06.585Z,8.90
2023-05-05T13:46:26.525Z,3.88
2023-05-05T13:53:47.892Z,4.47
2023-05-05T14:01:06.816Z,6.90
2023-05-05T14:08:25.572Z,4.03
2023-05-05T14:15:45.624Z,4.50
2023-05-05T14:23:04.772Z,4.78
2023-05-05T14:30:23.535Z,4.45
2023-05-05T14:37:43.619Z,5.47
2023-05-05T14:45:03.656Z,5.30
2023-05-05T14:52:21.929Z,6.25
2023-05-05T14:59:42.267Z,5.22
2023-05-05T15:07:00.981Z,4.13
2023-05-05T15:14:19.401Z,3.08
2023-05-05T15:21:39.054Z,4.47
2023-05-05T15:28:57.675Z,3.88
2023-05-05T15:36:17.355Z,4.78
2023-05-05T15:43:39.014Z,3.88
2023-05-05T15:50:57.562Z,3.35
2023-05-05T15:58:16.010Z,5.15
2023-05-05T16:05:36.361Z,3.33
2023-05-05T16:12:55.405Z,3.95
2023-05-05T16:20:14.537Z,6.88
2023-05-05T16:27:34.320Z,6.88
2023-05-05T16:34:52.904Z,5.82
2023-05-05T16:42:11.487Z,5.30
2023-05-05T16:49:31.503Z,3.03
2023-05-05T16:56:51.198Z,4.68
2023-05-05T17:04:09.972Z,2.83
2023-05-05T17:11:29.937Z,2.72
2023-05-05T17:18:48.415Z,5.90
2023-05-05T17:26:06.770Z,5.93
2023-05-05T17:33:26.494Z,5.07
2023-05-05T17:40:45.325Z,4.00
2023-05-05T17:48:04.082Z,4.25
2023-05-05T17:55:24.569Z,6.78
2023-05-05T18:02:43.578Z,6.65
2023-05-05T18:10:01.906Z,9.90
2023-05-05T18:17:22.079Z,10.77
2023-05-05T18:24:40.424Z,9.60
2023-05-05T18:31:59.658Z,7.28
2023-05-05T18:39:19.338Z,7.20
2023-05-05T18:46:38.220Z,13.60
2023-05-05T18:53:57.156Z,9.02
2023-05-05T19:01:17.605Z,9.02
2023-05-05T19:08:36.969Z,9.43
2023-05-05T19:15:57.657Z,9.98
2023-05-05T19:23:23.434Z,7.72
2023-05-05T19:30:49.029Z,14.57
2023-05-05T19:38:09.977Z,13.68
2023-05-05T19:45:30.405Z,9.88
2023-05-05T19:52:48.903Z,8.55
2023-05-05T20:00:10.730Z,11.15
2023-05-05T20:07:31.469Z,8.13
2023-05-05T20:14:50.454Z,7.70
2023-05-05T20:22:09.622Z,14.70
2023-05-05T20:29:30.539Z,10.75
2023-05-05T20:36:49.520Z,8.02
2023-05-05T20:44:09.908Z,10.10
2023-05-05T20:51:32.221Z,11.35
2023-05-05T20:58:51.264Z,17.98
2023-05-05T21:06:10.452Z,13.13
2023-05-05T21:13:31.360Z,14.07
2023-05-05T21:20:49.799Z,11.80
2023-05-05T21:28:08.792Z,12.13
2023-05-05T21:35:28.637Z,11.95
2023-05-05T21:42:47.338Z,14.57
2023-05-05T21:50:06.706Z,12.05
2023-05-05T21:57:27.359Z,12.10
2023-05-05T22:04:48.803Z,13.48
2023-05-05T22:12:08.828Z,7.80
2023-05-05T22:19:29.521Z,11.15
2023-05-05T22:26:48.614Z,10.48
2023-05-05T22:34:07.016Z,11.98
2023-05-05T22:41:26.984Z,9.95
2023-05-05T22:48:45.241Z,13.02
2023-05-05T22:56:04.866Z,9.75
2023-05-05T23:03:25.107Z,11.55
2023-05-05T23:10:43.516Z,10.55
2023-05-05T23:18:01.909Z,11.07
2023-05-05T23:25:21.789Z,14.25
2023-05-05T23:32:40.235Z,10.68
2023-05-05T23:39:58.844Z,9.68
2023-05-05T23:47:18.756Z,15.23
2023-05-05T23:54:37.444Z,7.85
